sensor_id;sensor_type;location;lat;lon;timestamp;temperature;humidity
15656;DHT22;7928;43.614;1.456;2024-02-21T00:00:04;9.50;99.90
15656;DHT22;7928;43.614;1.456;2024-02-21T00:02:31;9.50;99.90
15656;DHT22;7928;43.614;1.456;2024-02-21T00:04:58;9.50;99.90
15656;DHT22;7928;43.614;1.456;2024-02-21T00:07:27;9.50;99.90
15656;DHT22;7928;43.614;1.456;2024-02-21T00:09:54;9.40;99.90
15656;DHT22;7928;43.614;1.456;2024-02-21T00:12:21;9.40;99.90
15656;DHT22;7928;43.614;1.456;2024-02-21T00:14:48;9.40;99.90
15656;DHT22;7928;43.614;1.456;2024-02-21T00:17:15;9.30;99.90
15656;DHT22;7928;43.614;1.456;2024-02-21T00:19:42;9.30;99.90
15656;DHT22;7928;43.614;1.456;2024-02-21T00:22:09;9.30;99.90
15656;DHT22;7928;43.614;1.456;2024-02-21T00:24:37;9.20;99.90
15656;DHT22;7928;43.614;1.456;2024-02-21T00:27:05;9.20;99.90
15656;DHT22;7928;43.614;1.456;2024-02-21T00:29:32;9.20;99.90
15656;DHT22;7928;43.614;1.456;2024-02-21T00:32:00;9.30;99.90
15656;DHT22;7928;43.614;1.456;2024-02-21T00:34:27;9.20;99.90
15656;DHT22;7928;43.614;1.456;2024-02-21T00:36:53;9.20;99.90
15656;DHT22;7928;43.614;1.456;2024-02-21T00:39:20;9.20;99.90
15656;DHT22;7928;43.614;1.456;2024-02-21T00:41:49;9.20;99.90
15656;DHT22;7928;43.614;1.456;2024-02-21T00:44:16;9.20;99.90
15656;DHT22;7928;43.614;1.456;2024-02-21T00:46:43;9.20;99.90
15656;DHT22;7928;43.614;1.456;2024-02-21T00:49:10;9.20;99.90
15656;DHT22;7928;43.614;1.456;2024-02-21T00:51:37;9.30;99.90
15656;DHT22;7928;43.614;1.456;2024-02-21T00:54:04;9.30;99.90
15656;DHT22;7928;43.614;1.456;2024-02-21T00:56:31;9.20;99.90
15656;DHT22;7928;43.614;1.456;2024-02-21T00:59:00;9.30;99.90
15656;DHT22;7928;43.614;1.456;2024-02-21T01:01:27;9.20;99.90
15656;DHT22;7928;43.614;1.456;2024-02-21T01:03:54;9.30;99.90
15656;DHT22;7928;43.614;1.456;2024-02-21T01:06:21;9.30;99.90
15656;DHT22;7928;43.614;1.456;2024-02-21T01:08:49;9.30;99.90
15656;DHT22;7928;43.614;1.456;2024-02-21T01:11:16;9.30;99.90
15656;DHT22;7928;43.614;1.456;2024-02-21T01:13:43;9.30;99.90
15656;DHT22;7928;43.614;1.456;2024-02-21T01:16:11;9.30;99.90
15656;DHT22;7928;43.614;1.456;2024-02-21T01:18:38;9.30;99.90
15656;DHT22;7928;43.614;1.456;2024-02-21T01:21:06;9.30;99.90
15656;DHT22;7928;43.614;1.456;2024-02-21T01:23:33;9.30;99.90
15656;DHT22;7928;43.614;1.456;2024-02-21T01:26:00;9.30;99.90
15656;DHT22;7928;43.614;1.456;2024-02-21T01:28:27;9.30;99.90
15656;DHT22;7928;43.614;1.456;2024-02-21T01:30:54;9.40;99.90
15656;DHT22;7928;43.614;1.456;2024-02-21T01:33:23;9.40;99.90
15656;DHT22;7928;43.614;1.456;2024-02-21T01:35:50;9.40;99.90
15656;DHT22;7928;43.614;1.456;2024-02-21T01:38:17;9.40;99.90
15656;DHT22;7928;43.614;1.456;2024-02-21T01:40:44;9.30;99.90
15656;DHT22;7928;43.614;1.456;2024-02-21T01:43:18;9.30;99.90
15656;DHT22;7928;43.614;1.456;2024-02-21T01:45:48;9.30;99.90
15656;DHT22;7928;43.614;1.456;2024-02-21T01:48:16;9.20;99.90
15656;DHT22;7928;43.614;1.456;2024-02-21T01:50:44;9.10;1.00
15656;DHT22;7928;43.614;1.456;2024-02-21T01:53:12;9.00;1.00
15656;DHT22;7928;43.614;1.456;2024-02-21T01:55:44;9.10;1.00
15656;DHT22;7928;43.614;1.456;2024-02-21T01:58:12;9.10;1.00
15656;DHT22;7928;43.614;1.456;2024-02-21T02:00:41;9.10;1.00
15656;DHT22;7928;43.614;1.456;2024-02-21T02:03:10;9.10;1.00
15656;DHT22;7928;43.614;1.456;2024-02-21T02:05:44;9.00;1.00
15656;DHT22;7928;43.614;1.456;2024-02-21T02:08:12;9.00;1.00
15656;DHT22;7928;43.614;1.456;2024-02-21T02:10:40;8.90;1.00
15656;DHT22;7928;43.614;1.456;2024-02-21T02:13:07;8.90;1.00
15656;DHT22;7928;43.614;1.456;2024-02-21T02:15:41;8.90;1.00
15656;DHT22;7928;43.614;1.456;2024-02-21T02:18:08;8.80;1.00
15656;DHT22;7928;43.614;1.456;2024-02-21T02:20:35;8.70;1.00
15656;DHT22;7928;43.614;1.456;2024-02-21T02:23:07;8.70;1.00
15656;DHT22;7928;43.614;1.456;2024-02-21T02:25:39;8.70;1.00
15656;DHT22;7928;43.614;1.456;2024-02-21T02:28:07;8.60;1.00
15656;DHT22;7928;43.614;1.456;2024-02-21T02:30:35;8.60;1.00
15656;DHT22;7928;43.614;1.456;2024-02-21T02:33:03;8.70;1.00
15656;DHT22;7928;43.614;1.456;2024-02-21T02:35:30;8.70;1.00
15656;DHT22;7928;43.614;1.456;2024-02-21T02:37:57;8.70;1.00
15656;DHT22;7928;43.614;1.456;2024-02-21T02:40:24;8.60;1.00
15656;DHT22;7928;43.614;1.456;2024-02-21T02:42:53;8.50;1.00
15656;DHT22;7928;43.614;1.456;2024-02-21T02:45:21;8.50;1.00
15656;DHT22;7928;43.614;1.456;2024-02-21T02:47:49;8.50;1.00
15656;DHT22;7928;43.614;1.456;2024-02-21T02:50:16;8.40;1.00
15656;DHT22;7928;43.614;1.456;2024-02-21T02:52:43;8.30;1.00
15656;DHT22;7928;43.614;1.456;2024-02-21T02:55:10;8.20;1.00
15656;DHT22;7928;43.614;1.456;2024-02-21T02:57:37;8.10;1.00
15656;DHT22;7928;43.614;1.456;2024-02-21T03:00:06;8.10;1.00
15656;DHT22;7928;43.614;1.456;2024-02-21T03:02:34;8.00;1.00
15656;DHT22;7928;43.614;1.456;2024-02-21T03:05:01;7.90;1.00
15656;DHT22;7928;43.614;1.456;2024-02-21T03:07:36;7.80;1.00
15656;DHT22;7928;43.614;1.456;2024-02-21T03:10:03;7.80;1.00
15656;DHT22;7928;43.614;1.456;2024-02-21T03:14:58;7.70;1.00
15656;DHT22;7928;43.614;1.456;2024-02-21T03:17:26;7.70;1.00
15656;DHT22;7928;43.614;1.456;2024-02-21T03:19:53;7.70;1.00
15656;DHT22;7928;43.614;1.456;2024-02-21T03:22:21;7.70;1.00
15656;DHT22;7928;43.614;1.456;2024-02-21T03:24:48;7.70;1.00
15656;DHT22;7928;43.614;1.456;2024-02-21T03:27:15;7.70;1.00
15656;DHT22;7928;43.614;1.456;2024-02-21T03:29:42;7.70;1.00
15656;DHT22;7928;43.614;1.456;2024-02-21T03:32:10;7.70;1.00
15656;DHT22;7928;43.614;1.456;2024-02-21T03:34:38;7.70;1.00
15656;DHT22;7928;43.614;1.456;2024-02-21T03:37:05;7.70;1.00
15656;DHT22;7928;43.614;1.456;2024-02-21T03:39:32;7.60;1.00
15656;DHT22;7928;43.614;1.456;2024-02-21T03:41:59;7.60;1.00
15656;DHT22;7928;43.614;1.456;2024-02-21T03:44:30;7.60;1.00
15656;DHT22;7928;43.614;1.456;2024-02-21T03:46:58;7.60;1.00
15656;DHT22;7928;43.614;1.456;2024-02-21T03:49:25;7.60;1.00
15656;DHT22;7928;43.614;1.456;2024-02-21T03:51:53;7.50;1.00
15656;DHT22;7928;43.614;1.456;2024-02-21T03:54:21;7.50;1.00
15656;DHT22;7928;43.614;1.456;2024-02-21T03:56:48;7.50;1.00
15656;DHT22;7928;43.614;1.456;2024-02-21T03:59:15;7.40;1.00
15656;DHT22;7928;43.614;1.456;2024-02-21T04:01:42;7.40;1.00
15656;DHT22;7928;43.614;1.456;2024-02-21T04:04:09;7.30;1.00
15656;DHT22;7928;43.614;1.456;2024-02-21T04:06:36;7.30;1.00
15656;DHT22;7928;43.614;1.456;2024-02-21T04:09:05;7.30;1.00
15656;DHT22;7928;43.614;1.456;2024-02-21T04:11:32;7.20;1.00
15656;DHT22;7928;43.614;1.456;2024-02-21T04:13:59;7.30;1.00
15656;DHT22;7928;43.614;1.456;2024-02-21T04:16:26;7.30;1.00
15656;DHT22;7928;43.614;1.456;2024-02-21T04:18:53;7.30;1.00
15656;DHT22;7928;43.614;1.456;2024-02-21T04:21:20;7.30;1.00
15656;DHT22;7928;43.614;1.456;2024-02-21T04:23:47;7.30;1.00
15656;DHT22;7928;43.614;1.456;2024-02-21T04:26:15;7.20;1.00
15656;DHT22;7928;43.614;1.456;2024-02-21T04:28:44;7.20;1.00
15656;DHT22;7928;43.614;1.456;2024-02-21T04:31:11;7.20;1.00
15656;DHT22;7928;43.614;1.456;2024-02-21T04:33:38;7.20;1.00
15656;DHT22;7928;43.614;1.456;2024-02-21T04:36:05;7.20;1.00
15656;DHT22;7928;43.614;1.456;2024-02-21T04:38:33;7.10;1.00
15656;DHT22;7928;43.614;1.456;2024-02-21T04:41:00;7.00;1.00
15656;DHT22;7928;43.614;1.456;2024-02-21T04:43:28;7.00;1.00
15656;DHT22;7928;43.614;1.456;2024-02-21T04:45:55;7.00;1.00
15656;DHT22;7928;43.614;1.456;2024-02-21T04:48:22;7.00;1.00
15656;DHT22;7928;43.614;1.456;2024-02-21T04:50:49;7.00;1.00
15656;DHT22;7928;43.614;1.456;2024-02-21T04:55:44;7.00;1.00
15656;DHT22;7928;43.614;1.456;2024-02-21T04:58:11;7.00;1.00
15656;DHT22;7928;43.614;1.456;2024-02-21T05:00:39;7.00;1.00
15656;DHT22;7928;43.614;1.456;2024-02-21T05:03:06;7.00;1.00
15656;DHT22;7928;43.614;1.456;2024-02-21T05:08:01;6.90;1.00
15656;DHT22;7928;43.614;1.456;2024-02-21T05:10:28;6.90;1.00
15656;DHT22;7928;43.614;1.456;2024-02-21T05:12:55;6.90;1.00
15656;DHT22;7928;43.614;1.456;2024-02-21T05:15:22;6.80;2.00
15656;DHT22;7928;43.614;1.456;2024-02-21T05:17:50;6.90;1.00
15656;DHT22;7928;43.614;1.456;2024-02-21T05:20:17;6.80;1.00
15656;DHT22;7928;43.614;1.456;2024-02-21T05:22:44;6.80;1.00
15656;DHT22;7928;43.614;1.456;2024-02-21T05:25:11;6.80;1.00
15656;DHT22;7928;43.614;1.456;2024-02-21T05:27:38;6.70;1.00
15656;DHT22;7928;43.614;1.456;2024-02-21T05:30:06;6.70;2.00
15656;DHT22;7928;43.614;1.456;2024-02-21T05:32:33;6.70;4.80
15656;DHT22;7928;43.614;1.456;2024-02-21T05:35:01;6.70;7.30
15656;DHT22;7928;43.614;1.456;2024-02-21T05:37:28;6.80;6.60
15656;DHT22;7928;43.614;1.456;2024-02-21T05:39:55;6.80;9.00
15656;DHT22;7928;43.614;1.456;2024-02-21T05:42:22;6.80;7.40
15656;DHT22;7928;43.614;1.456;2024-02-21T05:44:49;6.50;10.60
15656;DHT22;7928;43.614;1.456;2024-02-21T05:47:16;6.90;6.80
15656;DHT22;7928;43.614;1.456;2024-02-21T05:52:14;6.90;8.40
15656;DHT22;7928;43.614;1.456;2024-02-21T05:54:41;6.90;4.60
15656;DHT22;7928;43.614;1.456;2024-02-21T05:57:08;6.90;6.30
15656;DHT22;7928;43.614;1.456;2024-02-21T05:59:38;6.80;8.40
15656;DHT22;7928;43.614;1.456;2024-02-21T06:02:05;6.80;11.00
15656;DHT22;7928;43.614;1.456;2024-02-21T06:04:32;6.80;11.10
15656;DHT22;7928;43.614;1.456;2024-02-21T06:07:00;6.70;14.60
15656;DHT22;7928;43.614;1.456;2024-02-21T06:09:28;6.50;24.30
15656;DHT22;7928;43.614;1.456;2024-02-21T06:11:55;6.60;25.40
15656;DHT22;7928;43.614;1.456;2024-02-21T06:14:22;6.50;30.50
15656;DHT22;7928;43.614;1.456;2024-02-21T06:16:49;6.50;34.50
15656;DHT22;7928;43.614;1.456;2024-02-21T06:19:16;6.50;33.90
15656;DHT22;7928;43.614;1.456;2024-02-21T06:21:43;6.50;33.80
15656;DHT22;7928;43.614;1.456;2024-02-21T06:24:10;6.50;33.20
15656;DHT22;7928;43.614;1.456;2024-02-21T06:26:40;6.50;38.40
15656;DHT22;7928;43.614;1.456;2024-02-21T06:29:07;6.40;35.80
15656;DHT22;7928;43.614;1.456;2024-02-21T06:31:35;6.40;40.70
15656;DHT22;7928;43.614;1.456;2024-02-21T06:34:02;6.30;42.70
15656;DHT22;7928;43.614;1.456;2024-02-21T06:36:30;6.30;44.60
15656;DHT22;7928;43.614;1.456;2024-02-21T06:38:57;6.30;45.90
15656;DHT22;7928;43.614;1.456;2024-02-21T06:41:24;6.30;47.40
15656;DHT22;7928;43.614;1.456;2024-02-21T06:43:52;6.40;43.50
15656;DHT22;7928;43.614;1.456;2024-02-21T06:46:23;6.40;44.50
15656;DHT22;7928;43.614;1.456;2024-02-21T06:48:50;6.40;38.70
15656;DHT22;7928;43.614;1.456;2024-02-21T06:51:18;6.40;39.50
15656;DHT22;7928;43.614;1.456;2024-02-21T06:53:45;6.30;39.80
15656;DHT22;7928;43.614;1.456;2024-02-21T06:56:12;6.30;42.80
15656;DHT22;7928;43.614;1.456;2024-02-21T06:58:39;6.30;43.30
15656;DHT22;7928;43.614;1.456;2024-02-21T07:01:08;6.40;40.00
15656;DHT22;7928;43.614;1.456;2024-02-21T07:03:35;6.40;37.80
15656;DHT22;7928;43.614;1.456;2024-02-21T07:06:02;6.40;36.00
15656;DHT22;7928;43.614;1.456;2024-02-21T07:08:29;6.50;29.20
15656;DHT22;7928;43.614;1.456;2024-02-21T07:10:59;6.50;26.20
15656;DHT22;7928;43.614;1.456;2024-02-21T07:13:26;6.50;27.80
15656;DHT22;7928;43.614;1.456;2024-02-21T07:15:53;6.60;21.20
15656;DHT22;7928;43.614;1.456;2024-02-21T07:18:21;6.60;17.80
15656;DHT22;7928;43.614;1.456;2024-02-21T07:20:50;7.00;13.20
15656;DHT22;7928;43.614;1.456;2024-02-21T07:23:17;6.70;12.60
15656;DHT22;7928;43.614;1.456;2024-02-21T07:25:44;6.70;11.30
15656;DHT22;7928;43.614;1.456;2024-02-21T07:28:12;6.60;10.70
15656;DHT22;7928;43.614;1.456;2024-02-21T07:30:40;6.70;10.70
15656;DHT22;7928;43.614;1.456;2024-02-21T07:33:07;6.80;9.40
15656;DHT22;7928;43.614;1.456;2024-02-21T07:35:35;6.90;1.70
15656;DHT22;7928;43.614;1.456;2024-02-21T07:38:03;6.90;1.00
15656;DHT22;7928;43.614;1.456;2024-02-21T07:40:30;6.90;1.00
15656;DHT22;7928;43.614;1.456;2024-02-21T07:42:57;7.00;1.00
15656;DHT22;7928;43.614;1.456;2024-02-21T07:45:25;7.10;1.00
15656;DHT22;7928;43.614;1.456;2024-02-21T07:47:52;7.10;1.00
15656;DHT22;7928;43.614;1.456;2024-02-21T07:50:19;7.10;1.00
15656;DHT22;7928;43.614;1.456;2024-02-21T07:52:47;7.30;1.00
15656;DHT22;7928;43.614;1.456;2024-02-21T07:55:14;7.30;1.00
15656;DHT22;7928;43.614;1.456;2024-02-21T07:57:41;7.30;1.00
15656;DHT22;7928;43.614;1.456;2024-02-21T08:00:09;7.20;1.00
15656;DHT22;7928;43.614;1.456;2024-02-21T08:02:40;7.20;1.00
15656;DHT22;7928;43.614;1.456;2024-02-21T08:05:09;7.40;1.00
15656;DHT22;7928;43.614;1.456;2024-02-21T08:07:37;7.50;1.00
15656;DHT22;7928;43.614;1.456;2024-02-21T08:10:07;7.60;99.90
15656;DHT22;7928;43.614;1.456;2024-02-21T08:12:34;7.70;99.90
15656;DHT22;7928;43.614;1.456;2024-02-21T08:15:02;7.70;99.90
15656;DHT22;7928;43.614;1.456;2024-02-21T08:17:30;7.80;99.90
15656;DHT22;7928;43.614;1.456;2024-02-21T08:19:57;7.90;99.90
15656;DHT22;7928;43.614;1.456;2024-02-21T08:22:24;8.00;99.90
15656;DHT22;7928;43.614;1.456;2024-02-21T08:24:51;7.90;99.90
15656;DHT22;7928;43.614;1.456;2024-02-21T08:27:19;7.80;99.90
15656;DHT22;7928;43.614;1.456;2024-02-21T08:29:46;7.80;99.90
15656;DHT22;7928;43.614;1.456;2024-02-21T08:32:13;7.70;99.90
15656;DHT22;7928;43.614;1.456;2024-02-21T08:34:40;7.50;99.90
15656;DHT22;7928;43.614;1.456;2024-02-21T08:37:07;7.40;1.00
15656;DHT22;7928;43.614;1.456;2024-02-21T08:39:36;7.50;1.00
15656;DHT22;7928;43.614;1.456;2024-02-21T08:42:03;7.60;1.00
15656;DHT22;7928;43.614;1.456;2024-02-21T08:44:32;7.70;1.00
15656;DHT22;7928;43.614;1.456;2024-02-21T08:46:59;7.80;99.90
15656;DHT22;7928;43.614;1.456;2024-02-21T08:49:31;7.90;99.90
15656;DHT22;7928;43.614;1.456;2024-02-21T08:51:58;8.00;99.90
15656;DHT22;7928;43.614;1.456;2024-02-21T08:54:25;7.90;99.90
15656;DHT22;7928;43.614;1.456;2024-02-21T08:56:52;8.00;99.90
15656;DHT22;7928;43.614;1.456;2024-02-21T08:59:20;8.20;99.90
15656;DHT22;7928;43.614;1.456;2024-02-21T09:01:49;8.20;99.90
15656;DHT22;7928;43.614;1.456;2024-02-21T09:04:16;8.20;99.90
15656;DHT22;7928;43.614;1.456;2024-02-21T09:06:43;8.40;99.90
15656;DHT22;7928;43.614;1.456;2024-02-21T09:09:11;8.50;99.90
15656;DHT22;7928;43.614;1.456;2024-02-21T09:11:38;8.60;99.90
15656;DHT22;7928;43.614;1.456;2024-02-21T09:14:06;8.70;99.90
15656;DHT22;7928;43.614;1.456;2024-02-21T09:16:33;9.00;99.90
15656;DHT22;7928;43.614;1.456;2024-02-21T09:19:01;9.50;99.90
15656;DHT22;7928;43.614;1.456;2024-02-21T09:21:29;9.40;99.90
15656;DHT22;7928;43.614;1.456;2024-02-21T09:23:56;9.70;99.90
15656;DHT22;7928;43.614;1.456;2024-02-21T09:26:23;9.90;99.90
15656;DHT22;7928;43.614;1.456;2024-02-21T09:28:50;10.10;99.90
15656;DHT22;7928;43.614;1.456;2024-02-21T09:31:17;10.40;99.90
15656;DHT22;7928;43.614;1.456;2024-02-21T09:33:44;10.80;99.90
15656;DHT22;7928;43.614;1.456;2024-02-21T09:36:12;10.80;99.90
15656;DHT22;7928;43.614;1.456;2024-02-21T09:38:39;10.90;99.90
15656;DHT22;7928;43.614;1.456;2024-02-21T09:41:15;11.20;99.90
15656;DHT22;7928;43.614;1.456;2024-02-21T09:43:44;11.20;99.90
15656;DHT22;7928;43.614;1.456;2024-02-21T09:46:16;11.40;99.90
15656;DHT22;7928;43.614;1.456;2024-02-21T09:48:56;11.70;99.90
15656;DHT22;7928;43.614;1.456;2024-02-21T09:51:29;12.00;99.90
15656;DHT22;7928;43.614;1.456;2024-02-21T09:53:58;12.20;99.90
15656;DHT22;7928;43.614;1.456;2024-02-21T09:56:26;12.50;99.90
15656;DHT22;7928;43.614;1.456;2024-02-21T09:58:53;12.80;99.90
15656;DHT22;7928;43.614;1.456;2024-02-21T10:01:20;13.10;99.90
15656;DHT22;7928;43.614;1.456;2024-02-21T10:03:47;13.40;99.90
15656;DHT22;7928;43.614;1.456;2024-02-21T10:06:15;13.60;99.90
15656;DHT22;7928;43.614;1.456;2024-02-21T10:08:43;13.60;99.90
15656;DHT22;7928;43.614;1.456;2024-02-21T10:11:10;13.80;99.90
15656;DHT22;7928;43.614;1.456;2024-02-21T10:13:37;14.00;99.90
15656;DHT22;7928;43.614;1.456;2024-02-21T10:16:06;14.40;99.90
15656;DHT22;7928;43.614;1.456;2024-02-21T10:18:34;14.80;99.90
15656;DHT22;7928;43.614;1.456;2024-02-21T10:21:02;15.30;99.90
15656;DHT22;7928;43.614;1.456;2024-02-21T10:23:29;15.80;99.90
15656;DHT22;7928;43.614;1.456;2024-02-21T10:26:07;17.20;99.90
15656;DHT22;7928;43.614;1.456;2024-02-21T10:28:34;18.40;99.90
15656;DHT22;7928;43.614;1.456;2024-02-21T10:31:01;18.80;99.90
15656;DHT22;7928;43.614;1.456;2024-02-21T10:33:28;19.20;99.90
15656;DHT22;7928;43.614;1.456;2024-02-21T10:36:06;19.30;99.90
15656;DHT22;7928;43.614;1.456;2024-02-21T10:38:35;19.80;99.90
15656;DHT22;7928;43.614;1.456;2024-02-21T10:41:03;18.00;99.90
15656;DHT22;7928;43.614;1.456;2024-02-21T10:43:38;17.30;99.90
15656;DHT22;7928;43.614;1.456;2024-02-21T10:46:07;16.90;99.90
15656;DHT22;7928;43.614;1.456;2024-02-21T10:48:42;16.30;99.90
15656;DHT22;7928;43.614;1.456;2024-02-21T10:51:17;15.50;99.90
15656;DHT22;7928;43.614;1.456;2024-02-21T10:53:50;15.30;99.90
15656;DHT22;7928;43.614;1.456;2024-02-21T10:56:22;15.10;99.90
15656;DHT22;7928;43.614;1.456;2024-02-21T10:58:53;14.90;99.90
15656;DHT22;7928;43.614;1.456;2024-02-21T11:01:21;15.10;99.90
15656;DHT22;7928;43.614;1.456;2024-02-21T11:03:50;15.30;99.90
15656;DHT22;7928;43.614;1.456;2024-02-21T11:06:20;15.60;99.90
15656;DHT22;7928;43.614;1.456;2024-02-21T11:08:58;16.00;99.90
15656;DHT22;7928;43.614;1.456;2024-02-21T11:11:25;15.90;99.90
15656;DHT22;7928;43.614;1.456;2024-02-21T11:14:04;16.10;99.90
15656;DHT22;7928;43.614;1.456;2024-02-21T11:16:35;15.80;99.90
15656;DHT22;7928;43.614;1.456;2024-02-21T11:19:07;15.90;99.90
15656;DHT22;7928;43.614;1.456;2024-02-21T11:21:35;15.90;99.90
15656;DHT22;7928;43.614;1.456;2024-02-21T11:24:03;15.80;99.90
15656;DHT22;7928;43.614;1.456;2024-02-21T11:26:30;15.80;99.90
15656;DHT22;7928;43.614;1.456;2024-02-21T11:29:00;15.80;99.90
15656;DHT22;7928;43.614;1.456;2024-02-21T11:31:38;15.90;99.90
15656;DHT22;7928;43.614;1.456;2024-02-21T11:34:08;16.00;99.90
15656;DHT22;7928;43.614;1.456;2024-02-21T11:36:35;16.20;99.90
15656;DHT22;7928;43.614;1.456;2024-02-21T11:39:05;16.50;99.90
15656;DHT22;7928;43.614;1.456;2024-02-21T11:41:32;16.40;99.90
15656;DHT22;7928;43.614;1.456;2024-02-21T11:44:01;16.30;99.90
15656;DHT22;7928;43.614;1.456;2024-02-21T11:46:29;16.80;99.90
15656;DHT22;7928;43.614;1.456;2024-02-21T11:48:56;17.10;99.90
15656;DHT22;7928;43.614;1.456;2024-02-21T11:51:26;16.90;99.90
15656;DHT22;7928;43.614;1.456;2024-02-21T11:53:53;17.30;99.90
15656;DHT22;7928;43.614;1.456;2024-02-21T11:56:20;17.70;99.90
15656;DHT22;7928;43.614;1.456;2024-02-21T11:58:48;18.70;99.90
15656;DHT22;7928;43.614;1.456;2024-02-21T12:01:17;18.40;99.90
15656;DHT22;7928;43.614;1.456;2024-02-21T12:03:44;18.50;99.90
15656;DHT22;7928;43.614;1.456;2024-02-21T12:06:16;18.80;99.90
15656;DHT22;7928;43.614;1.456;2024-02-21T12:08:46;18.80;99.90
15656;DHT22;7928;43.614;1.456;2024-02-21T12:11:17;18.50;99.80
15656;DHT22;7928;43.614;1.456;2024-02-21T12:13:45;18.50;99.70
15656;DHT22;7928;43.614;1.456;2024-02-21T12:16:16;18.90;99.00
15656;DHT22;7928;43.614;1.456;2024-02-21T12:18:45;19.00;98.80
15656;DHT22;7928;43.614;1.456;2024-02-21T12:21:12;19.30;99.00
15656;DHT22;7928;43.614;1.456;2024-02-21T12:23:39;19.20;98.90
15656;DHT22;7928;43.614;1.456;2024-02-21T12:26:06;19.40;97.80
15656;DHT22;7928;43.614;1.456;2024-02-21T12:28:34;18.90;97.40
15656;DHT22;7928;43.614;1.456;2024-02-21T12:31:01;19.10;97.30
15656;DHT22;7928;43.614;1.456;2024-02-21T12:33:31;19.10;97.40
15656;DHT22;7928;43.614;1.456;2024-02-21T12:35:58;19.00;97.40
15656;DHT22;7928;43.614;1.456;2024-02-21T12:38:25;18.70;97.70
15656;DHT22;7928;43.614;1.456;2024-02-21T12:40:52;18.90;98.70
15656;DHT22;7928;43.614;1.456;2024-02-21T12:43:19;18.80;99.10
15656;DHT22;7928;43.614;1.456;2024-02-21T12:45:48;19.00;99.10
15656;DHT22;7928;43.614;1.456;2024-02-21T12:48:15;19.10;99.20
15656;DHT22;7928;43.614;1.456;2024-02-21T12:50:48;18.70;99.20
15656;DHT22;7928;43.614;1.456;2024-02-21T12:53:16;18.20;99.40
15656;DHT22;7928;43.614;1.456;2024-02-21T12:55:44;18.30;99.90
15656;DHT22;7928;43.614;1.456;2024-02-21T12:58:11;18.40;99.80
15656;DHT22;7928;43.614;1.456;2024-02-21T13:00:39;18.20;99.40
15656;DHT22;7928;43.614;1.456;2024-02-21T13:03:06;18.00;99.90
15656;DHT22;7928;43.614;1.456;2024-02-21T13:05:35;18.30;99.80
15656;DHT22;7928;43.614;1.456;2024-02-21T13:08:04;18.20;99.40
15656;DHT22;7928;43.614;1.456;2024-02-21T13:10:31;18.30;99.10
15656;DHT22;7928;43.614;1.456;2024-02-21T13:12:59;18.60;99.10
15656;DHT22;7928;43.614;1.456;2024-02-21T13:15:26;18.80;98.40
15656;DHT22;7928;43.614;1.456;2024-02-21T13:17:55;19.10;98.30
15656;DHT22;7928;43.614;1.456;2024-02-21T13:20:22;19.20;98.50
15656;DHT22;7928;43.614;1.456;2024-02-21T13:22:49;19.80;98.60
15656;DHT22;7928;43.614;1.456;2024-02-21T13:25:17;19.80;98.10
15656;DHT22;7928;43.614;1.456;2024-02-21T13:27:47;20.10;98.60
15656;DHT22;7928;43.614;1.456;2024-02-21T13:30:14;20.20;98.30
15656;DHT22;7928;43.614;1.456;2024-02-21T13:32:43;20.40;98.30
15656;DHT22;7928;43.614;1.456;2024-02-21T13:35:11;20.50;98.10
15656;DHT22;7928;43.614;1.456;2024-02-21T13:37:39;20.60;98.10
15656;DHT22;7928;43.614;1.456;2024-02-21T13:40:07;20.80;97.80
15656;DHT22;7928;43.614;1.456;2024-02-21T13:42:37;21.10;97.60
15656;DHT22;7928;43.614;1.456;2024-02-21T13:45:05;20.60;97.50
15656;DHT22;7928;43.614;1.456;2024-02-21T13:47:32;20.60;97.20
15656;DHT22;7928;43.614;1.456;2024-02-21T13:50:02;20.60;97.20
15656;DHT22;7928;43.614;1.456;2024-02-21T13:52:30;20.80;97.30
15656;DHT22;7928;43.614;1.456;2024-02-21T13:54:57;21.10;96.80
15656;DHT22;7928;43.614;1.456;2024-02-21T13:57:24;20.90;96.80
15656;DHT22;7928;43.614;1.456;2024-02-21T13:59:52;20.50;96.70
15656;DHT22;7928;43.614;1.456;2024-02-21T14:02:19;20.60;96.80
15656;DHT22;7928;43.614;1.456;2024-02-21T14:04:47;20.90;97.20
15656;DHT22;7928;43.614;1.456;2024-02-21T14:07:14;21.10;97.10
15656;DHT22;7928;43.614;1.456;2024-02-21T14:09:42;21.40;97.40
15656;DHT22;7928;43.614;1.456;2024-02-21T14:12:09;21.70;96.70
15656;DHT22;7928;43.614;1.456;2024-02-21T14:14:36;21.40;96.90
15656;DHT22;7928;43.614;1.456;2024-02-21T14:17:05;21.10;96.40
15656;DHT22;7928;43.614;1.456;2024-02-21T14:19:32;20.80;96.50
15656;DHT22;7928;43.614;1.456;2024-02-21T14:21:59;20.80;96.30
15656;DHT22;7928;43.614;1.456;2024-02-21T14:24:27;20.70;97.00
15656;DHT22;7928;43.614;1.456;2024-02-21T14:26:55;20.50;97.20
15656;DHT22;7928;43.614;1.456;2024-02-21T14:29:22;20.40;97.30
15656;DHT22;7928;43.614;1.456;2024-02-21T14:31:49;20.40;97.80
15656;DHT22;7928;43.614;1.456;2024-02-21T14:34:17;20.40;97.30
15656;DHT22;7928;43.614;1.456;2024-02-21T14:36:44;20.20;96.80
15656;DHT22;7928;43.614;1.456;2024-02-21T14:39:11;20.40;97.20
15656;DHT22;7928;43.614;1.456;2024-02-21T14:41:39;20.50;96.80
15656;DHT22;7928;43.614;1.456;2024-02-21T14:44:06;20.50;95.60
15656;DHT22;7928;43.614;1.456;2024-02-21T14:46:36;20.30;94.60
15656;DHT22;7928;43.614;1.456;2024-02-21T14:49:03;20.30;94.50
15656;DHT22;7928;43.614;1.456;2024-02-21T14:51:32;20.40;94.80
15656;DHT22;7928;43.614;1.456;2024-02-21T14:53:59;20.40;94.80
15656;DHT22;7928;43.614;1.456;2024-02-21T14:56:26;20.40;94.40
15656;DHT22;7928;43.614;1.456;2024-02-21T14:58:53;20.70;94.70
15656;DHT22;7928;43.614;1.456;2024-02-21T15:01:20;21.00;94.60
15656;DHT22;7928;43.614;1.456;2024-02-21T15:03:47;20.80;94.60
15656;DHT22;7928;43.614;1.456;2024-02-21T15:06:14;20.80;94.30
15656;DHT22;7928;43.614;1.456;2024-02-21T15:08:43;21.10;94.70
15656;DHT22;7928;43.614;1.456;2024-02-21T15:11:10;21.50;93.90
15656;DHT22;7928;43.614;1.456;2024-02-21T15:13:37;21.80;93.60
15656;DHT22;7928;43.614;1.456;2024-02-21T15:16:05;21.60;93.60
15656;DHT22;7928;43.614;1.456;2024-02-21T15:18:32;21.40;93.70
15656;DHT22;7928;43.614;1.456;2024-02-21T15:21:03;21.10;94.20
15656;DHT22;7928;43.614;1.456;2024-02-21T15:23:30;20.90;94.40
15656;DHT22;7928;43.614;1.456;2024-02-21T15:26:01;20.60;94.80
15656;DHT22;7928;43.614;1.456;2024-02-21T15:28:28;20.70;95.10
15656;DHT22;7928;43.614;1.456;2024-02-21T15:30:55;20.90;95.30
15656;DHT22;7928;43.614;1.456;2024-02-21T15:33:22;20.80;94.70
15656;DHT22;7928;43.614;1.456;2024-02-21T15:35:49;20.30;94.90
15656;DHT22;7928;43.614;1.456;2024-02-21T15:38:17;20.00;95.60
15656;DHT22;7928;43.614;1.456;2024-02-21T15:40:45;20.00;95.90
15656;DHT22;7928;43.614;1.456;2024-02-21T15:43:13;19.80;96.00
15656;DHT22;7928;43.614;1.456;2024-02-21T15:45:40;19.60;96.50
15656;DHT22;7928;43.614;1.456;2024-02-21T15:48:07;19.30;96.70
15656;DHT22;7928;43.614;1.456;2024-02-21T15:50:35;19.20;96.40
15656;DHT22;7928;43.614;1.456;2024-02-21T15:53:03;19.10;96.90
15656;DHT22;7928;43.614;1.456;2024-02-21T15:55:30;19.00;96.90
15656;DHT22;7928;43.614;1.456;2024-02-21T15:57:57;18.90;96.60
15656;DHT22;7928;43.614;1.456;2024-02-21T16:00:25;18.80;97.10
15656;DHT22;7928;43.614;1.456;2024-02-21T16:02:53;18.70;97.60
15656;DHT22;7928;43.614;1.456;2024-02-21T16:05:20;18.50;97.40
15656;DHT22;7928;43.614;1.456;2024-02-21T16:07:47;18.40;97.60
15656;DHT22;7928;43.614;1.456;2024-02-21T16:10:14;18.30;97.90
15656;DHT22;7928;43.614;1.456;2024-02-21T16:12:41;18.20;98.00